createdAt,value
2022-11-19T00:02:03.815Z,6.83
2022-11-19T00:04:32.067Z,6.97
2022-11-19T00:07:00.385Z,9.53
2022-11-19T00:09:28.259Z,6.93
2022-11-19T00:12:13.569Z,6.63
2022-11-19T00:14:43.045Z,8.83
2022-11-19T00:17:10.904Z,7.13
2022-11-19T00:19:38.698Z,9.33
2022-11-19T00:22:06.778Z,9.07
2022-11-19T00:24:36.992Z,8.07
2022-11-19T00:27:05.123Z,7.40
2022-11-19T00:29:34.203Z,8.47
2022-11-19T00:32:05.450Z,9.00
2022-11-19T00:34:33.355Z,8.77
2022-11-19T00:37:01.281Z,9.00
2022-11-19T00:39:29.066Z,11.10
2022-11-19T00:41:58.913Z,10.90
2022-11-19T00:44:26.632Z,9.93
2022-11-19T00:46:54.398Z,10.53
2022-11-19T00:49:23.543Z,12.60
2022-11-19T00:51:51.456Z,9.50
2022-11-19T00:54:19.747Z,9.20
2022-11-19T00:56:48.395Z,8.13
2022-11-19T00:59:16.638Z,10.63
2022-11-19T01:01:48.995Z,10.73
2022-11-19T01:04:18.531Z,8.30
2022-11-19T01:06:48.078Z,8.90
2022-11-19T01:09:15.865Z,8.83
2022-11-19T01:11:43.621Z,9.63
2022-11-19T01:14:11.868Z,10.50
2022-11-19T01:16:43.000Z,12.37
2022-11-19T01:19:17.017Z,9.10
2022-11-19T01:21:46.721Z,9.70
2022-11-19T01:24:19.309Z,11.10
2022-11-19T01:26:47.130Z,9.27
2022-11-19T01:29:15.289Z,10.87
2022-11-19T01:31:43.100Z,11.97
2022-11-19T01:34:11.111Z,11.20
2022-11-19T01:36:39.066Z,11.17
2022-11-19T01:39:08.243Z,11.43
2022-11-19T01:41:37.032Z,10.87
2022-11-19T01:44:07.503Z,12.93
2022-11-19T01:46:38.391Z,11.80
2022-11-19T01:49:09.893Z,12.43
2022-11-19T01:51:40.550Z,12.83
2022-11-19T01:54:14.802Z,17.17
2022-11-19T01:56:43.836Z,16.90
2022-11-19T01:59:15.486Z,13.97
2022-11-19T02:01:44.593Z,15.67
2022-11-19T02:04:14.375Z,14.60
2022-11-19T02:06:45.104Z,16.07
2022-11-19T02:09:14.291Z,17.30
2022-11-19T02:12:04.055Z,16.00
2022-11-19T02:14:55.351Z,20.07
2022-11-19T02:17:39.356Z,17.53
2022-11-19T02:20:39.916Z,18.60
2022-11-19T02:23:27.570Z,19.57
2022-11-19T02:26:18.347Z,19.93
2022-11-19T02:28:48.766Z,18.80
2022-11-19T02:31:24.064Z,18.73
2022-11-19T02:33:59.034Z,18.87
2022-11-19T02:36:32.501Z,19.30
2022-11-19T02:39:07.589Z,19.43
2022-11-19T02:41:41.756Z,18.70
2022-11-19T02:44:41.250Z,19.20
2022-11-19T02:47:15.189Z,20.33
2022-11-19T02:49:44.981Z,17.97
2022-11-19T02:52:15.246Z,21.23
2022-11-19T02:54:43.023Z,21.27
2022-11-19T02:57:12.535Z,22.13
2022-11-19T03:00:00.867Z,20.37
2022-11-19T03:02:52.408Z,22.53
2022-11-19T03:05:23.040Z,21.57
2022-11-19T03:07:51.482Z,20.77
2022-11-19T03:10:23.910Z,20.53
2022-11-19T03:12:56.627Z,20.13
2022-11-19T03:15:49.290Z,21.00
2022-11-19T03:18:22.222Z,21.57
2022-11-19T03:20:56.950Z,22.73
2022-11-19T03:23:30.530Z,25.83
2022-11-19T03:26:02.545Z,23.00
2022-11-19T03:28:35.183Z,24.67
2022-11-19T03:31:05.356Z,22.07
2022-11-19T03:33:37.688Z,20.93
2022-11-19T03:36:10.726Z,21.53
2022-11-19T03:38:42.090Z,25.33
2022-11-19T03:41:14.152Z,23.83
2022-11-19T03:43:46.102Z,21.40
2022-11-19T03:46:20.741Z,22.80
2022-11-19T03:48:53.525Z,22.50
2022-11-19T03:51:25.334Z,21.20
2022-11-19T03:53:54.120Z,22.67
2022-11-19T03:56:25.420Z,23.10
2022-11-19T03:58:54.399Z,21.57
2022-11-19T04:01:23.229Z,20.73
2022-11-19T04:04:06.377Z,21.90
2022-11-19T04:06:34.202Z,22.23
2022-11-19T04:09:02.246Z,24.40
2022-11-19T04:11:30.065Z,23.60
2022-11-19T04:13:58.116Z,23.27
2022-11-19T04:16:27.494Z,21.17
2022-11-19T04:18:56.793Z,24.17
2022-11-19T04:21:25.412Z,24.10
2022-11-19T04:23:55.457Z,25.07
2022-11-19T04:26:24.420Z,17.30
2022-11-19T04:28:53.272Z,13.07
2022-11-19T04:31:21.210Z,9.77
2022-11-19T04:33:49.076Z,10.07
2022-11-19T04:36:18.131Z,9.27
2022-11-19T04:38:45.906Z,7.97
2022-11-19T04:41:14.168Z,7.77
2022-11-19T04:43:42.209Z,7.27
2022-11-19T04:46:10.314Z,7.83
2022-11-19T04:48:38.085Z,7.80
2022-11-19T04:51:05.989Z,7.90
2022-11-19T04:53:35.537Z,8.17
2022-11-19T04:56:03.448Z,8.40
2022-11-19T04:58:31.371Z,9.13
2022-11-19T05:00:59.411Z,10.27
2022-11-19T05:03:27.461Z,10.17
2022-11-19T05:05:55.281Z,8.60
2022-11-19T05:08:23.895Z,10.27
2022-11-19T05:10:53.223Z,9.80
2022-11-19T05:13:21.523Z,11.50
2022-11-19T05:15:49.694Z,9.03
2022-11-19T05:18:18.402Z,10.90
2022-11-19T05:20:46.218Z,10.10
2022-11-19T05:23:13.981Z,9.23
2022-11-19T05:25:43.294Z,11.17
2022-11-19T05:28:12.501Z,10.20
2022-11-19T05:30:41.264Z,8.93
2022-11-19T05:33:09.367Z,11.70
2022-11-19T05:35:37.196Z,9.43
2022-11-19T05:38:06.553Z,10.27
2022-11-19T05:40:36.282Z,12.03
2022-11-19T05:43:07.962Z,10.67
2022-11-19T05:45:37.972Z,9.80
2022-11-19T05:48:06.915Z,11.17
2022-11-19T05:50:34.801Z,11.50
2022-11-19T05:53:02.665Z,11.70
2022-11-19T05:55:31.169Z,10.50
2022-11-19T05:57:59.013Z,11.23
2022-11-19T06:00:27.343Z,12.17
2022-11-19T06:02:56.624Z,12.53
2022-11-19T06:05:24.388Z,11.70
2022-11-19T06:07:52.349Z,11.93
2022-11-19T06:10:20.147Z,14.33
2022-11-19T06:12:47.903Z,12.97
2022-11-19T06:15:16.009Z,14.30
2022-11-19T06:17:43.936Z,15.43
2022-11-19T06:20:13.539Z,13.90
2022-11-19T06:22:41.332Z,13.37
2022-11-19T06:25:09.922Z,15.33
2022-11-19T06:27:37.653Z,17.30
2022-11-19T06:30:06.655Z,18.60
2022-11-19T06:32:34.639Z,16.37
2022-11-19T06:35:02.427Z,15.53
2022-11-19T06:37:31.629Z,14.80
2022-11-19T06:39:59.499Z,14.23
2022-11-19T06:42:39.162Z,15.37
2022-11-19T06:45:09.389Z,16.07
2022-11-19T06:47:37.955Z,15.50
2022-11-19T06:50:07.081Z,15.80
2022-11-19T06:52:36.297Z,14.87
2022-11-19T06:55:04.322Z,15.23
2022-11-19T06:57:32.164Z,13.43
2022-11-19T06:59:59.930Z,13.90
2022-11-19T07:02:27.997Z,15.00
2022-11-19T07:04:55.815Z,16.63
2022-11-19T07:07:23.816Z,18.57
2022-11-19T07:09:52.953Z,17.87
2022-11-19T07:12:21.998Z,14.83
2022-11-19T07:14:49.920Z,15.13
2022-11-19T07:17:17.708Z,16.17
2022-11-19T07:19:45.597Z,14.90
2022-11-19T07:22:13.401Z,15.07
2022-11-19T07:24:41.193Z,15.40
2022-11-19T07:27:10.299Z,14.93
2022-11-19T07:29:38.720Z,16.07
2022-11-19T07:32:06.593Z,15.17
2022-11-19T07:34:34.473Z,17.10
2022-11-19T07:37:02.323Z,14.77
2022-11-19T07:39:30.242Z,16.17
2022-11-19T07:42:15.623Z,16.30
2022-11-19T07:44:44.721Z,14.03
2022-11-19T07:47:12.578Z,15.40
2022-11-19T07:49:40.351Z,14.50
2022-11-19T07:52:08.120Z,15.37
2022-11-19T07:54:35.844Z,14.30
2022-11-19T07:57:03.632Z,12.90
2022-11-19T07:59:31.404Z,13.43
2022-11-19T08:02:00.610Z,13.60
2022-11-19T08:04:29.120Z,14.23
2022-11-19T08:06:57.091Z,13.50
2022-11-19T08:09:24.941Z,13.23
2022-11-19T08:11:52.626Z,12.47
2022-11-19T08:14:20.483Z,13.50
2022-11-19T08:17:05.772Z,13.03
2022-11-19T08:19:34.992Z,13.17
2022-11-19T08:22:02.830Z,12.07
2022-11-19T08:24:30.705Z,13.73
2022-11-19T08:26:58.542Z,10.23
2022-11-19T08:29:26.333Z,13.37
2022-11-19T08:31:54.189Z,10.83
2022-11-19T08:34:22.302Z,13.53
2022-11-19T08:36:51.887Z,11.83
2022-11-19T08:39:19.769Z,12.33
2022-11-19T08:42:05.159Z,11.97
2022-11-19T08:44:32.982Z,13.03
2022-11-19T08:47:00.677Z,13.73
2022-11-19T08:49:28.624Z,10.67
2022-11-19T08:51:58.545Z,11.20
2022-11-19T08:54:26.403Z,9.70
2022-11-19T08:56:54.460Z,8.70
2022-11-19T08:59:22.544Z,8.30
2022-11-19T09:01:50.951Z,9.23
2022-11-19T09:04:19.274Z,9.07
2022-11-19T09:06:47.319Z,8.00
2022-11-19T09:09:16.566Z,7.87
2022-11-19T09:11:44.462Z,7.37
2022-11-19T09:14:12.355Z,6.73
2022-11-19T09:16:40.235Z,6.90
2022-11-19T09:19:08.008Z,9.30
2022-11-19T09:21:35.815Z,5.97
2022-11-19T09:24:03.582Z,5.93
2022-11-19T09:26:53.082Z,7.53
2022-11-19T09:29:21.228Z,8.63
2022-11-19T09:31:49.092Z,8.57
2022-11-19T09:34:17.393Z,6.97
2022-11-19T09:36:45.532Z,8.07
2022-11-19T09:39:13.594Z,7.67
2022-11-19T09:41:51.174Z,8.83
2022-11-19T09:44:37.292Z,8.30
2022-11-19T09:47:18.365Z,8.33
2022-11-19T09:49:50.285Z,7.23
2022-11-19T09:52:24.095Z,7.07
2022-11-19T09:54:55.541Z,8.23
2022-11-19T09:57:32.932Z,7.73
2022-11-19T10:00:05.428Z,7.63
2022-11-19T10:02:33.414Z,8.77
2022-11-19T10:05:01.473Z,8.50
2022-11-19T10:07:44.860Z,7.87
2022-11-19T10:10:25.043Z,9.20
2022-11-19T10:13:15.595Z,31.83
2022-11-19T10:15:56.028Z,8.80
2022-11-19T10:18:32.106Z,9.70
2022-11-19T10:21:07.615Z,10.33
2022-11-19T10:23:48.331Z,8.57
2022-11-19T10:26:17.632Z,9.00
2022-11-19T10:28:56.776Z,8.70
2022-11-19T10:31:34.074Z,9.07
2022-11-19T10:34:08.723Z,8.13
2022-11-19T10:36:43.360Z,7.57
2022-11-19T10:39:21.126Z,9.13
2022-11-19T10:41:56.857Z,9.73
2022-11-19T10:44:40.126Z,7.37
2022-11-19T10:47:13.921Z,10.23
2022-11-19T10:49:43.907Z,10.00
2022-11-19T10:52:23.537Z,10.63
2022-11-19T10:54:53.912Z,11.30
2022-11-19T10:57:23.202Z,9.90
2022-11-19T10:59:54.842Z,9.57
2022-11-19T11:02:31.856Z,10.00
2022-11-19T11:05:07.731Z,9.93
2022-11-19T11:07:51.305Z,9.03
2022-11-19T11:10:38.725Z,9.83
2022-11-19T11:13:33.602Z,10.87
2022-11-19T11:16:09.670Z,8.50
2022-11-19T11:18:40.638Z,9.87
2022-11-19T11:21:13.220Z,9.03
2022-11-19T11:23:51.672Z,10.23
2022-11-19T11:26:25.294Z,9.97
2022-11-19T11:28:59.949Z,10.83
2022-11-19T11:31:41.013Z,13.47
2022-11-19T11:34:28.641Z,8.90
2022-11-19T11:36:56.770Z,10.87
2022-11-19T11:39:31.367Z,9.63
2022-11-19T11:42:06.315Z,9.73
2022-11-19T11:44:38.251Z,11.00
2022-11-19T11:47:14.408Z,11.80
2022-11-19T11:49:44.827Z,11.23
2022-11-19T11:52:21.534Z,11.73
2022-11-19T11:54:58.486Z,12.33
2022-11-19T11:57:28.081Z,10.87
2022-11-19T11:59:56.325Z,10.47
2022-11-19T12:02:37.035Z,9.67
2022-11-19T12:05:07.316Z,8.80
2022-11-19T12:07:57.585Z,10.67
2022-11-19T12:10:30.234Z,8.80
2022-11-19T12:13:17.300Z,11.37
2022-11-19T12:15:55.853Z,10.47
2022-11-19T12:18:33.759Z,11.20
2022-11-19T12:21:11.667Z,11.27
2022-11-19T12:23:58.194Z,11.90
2022-11-19T12:26:39.673Z,10.67
2022-11-19T12:29:18.888Z,11.47
2022-11-19T12:32:11.190Z,10.50
2022-11-19T12:34:59.518Z,12.60
2022-11-19T12:37:42.838Z,11.57
2022-11-19T12:40:25.933Z,11.50
2022-11-19T12:43:04.212Z,13.83
2022-11-19T12:45:42.765Z,11.27
2022-11-19T12:48:43.833Z,11.83
2022-11-19T12:51:22.600Z,14.97
2022-11-19T12:54:15.216Z,12.60
2022-11-19T12:56:52.086Z,12.80
2022-11-19T12:59:34.973Z,11.50
2022-11-19T13:02:09.264Z,10.70
2022-11-19T13:04:43.980Z,11.60
2022-11-19T13:07:23.163Z,11.13
2022-11-19T13:09:54.330Z,11.63
2022-11-19T13:12:28.905Z,10.07
2022-11-19T13:15:01.720Z,14.20
2022-11-19T13:17:34.404Z,13.07
2022-11-19T13:20:06.075Z,13.07
2022-11-19T13:22:38.764Z,11.97
2022-11-19T13:25:18.360Z,12.20
2022-11-19T13:27:48.727Z,12.10
2022-11-19T13:30:19.409Z,11.60
2022-11-19T13:32:55.281Z,11.87
2022-11-19T13:35:27.256Z,11.63
2022-11-19T13:38:01.875Z,11.80
2022-11-19T13:40:35.982Z,14.03
2022-11-19T13:43:32.146Z,12.93
2022-11-19T13:46:09.410Z,13.50
2022-11-19T13:48:41.836Z,11.43
2022-11-19T13:51:27.831Z,13.70
2022-11-19T13:54:02.647Z,13.00
2022-11-19T13:56:43.740Z,13.23
2022-11-19T13:59:28.038Z,13.67
2022-11-19T14:02:21.144Z,13.27
2022-11-19T14:05:07.104Z,13.10
2022-11-19T14:07:54.597Z,14.13
2022-11-19T14:10:31.905Z,16.47
2022-11-19T14:13:15.664Z,15.20
2022-11-19T14:16:11.346Z,13.90
2022-11-19T14:18:58.858Z,14.17
2022-11-19T14:22:03.828Z,15.63
2022-11-19T14:25:11.684Z,15.80
2022-11-19T14:27:41.078Z,15.77
2022-11-19T14:30:18.076Z,15.23
2022-11-19T14:32:51.535Z,15.03
2022-11-19T14:35:34.084Z,18.43
2022-11-19T14:38:34.719Z,16.93
2022-11-19T14:41:08.229Z,16.00
2022-11-19T14:44:10.021Z,14.97
2022-11-19T14:46:40.554Z,16.63
2022-11-19T14:49:27.580Z,17.50
2022-11-19T14:51:57.597Z,17.07
2022-11-19T14:54:39.360Z,15.87
2022-11-19T14:57:16.489Z,16.67
2022-11-19T14:59:51.589Z,16.70
2022-11-19T15:02:30.531Z,15.60
2022-11-19T15:05:02.880Z,15.97
2022-11-19T15:07:40.909Z,14.27
2022-11-19T15:10:27.895Z,15.10
2022-11-19T15:13:19.245Z,15.23
2022-11-19T15:15:51.608Z,18.30
2022-11-19T15:18:55.826Z,13.50
2022-11-19T15:21:42.961Z,14.70
2022-11-19T15:24:22.620Z,16.77
2022-11-19T15:27:00.231Z,16.30
2022-11-19T15:30:01.125Z,15.80
2022-11-19T15:32:43.898Z,15.43
2022-11-19T15:35:29.523Z,17.40
2022-11-19T15:38:03.496Z,15.87
2022-11-19T15:40:34.922Z,18.57
2022-11-19T15:43:10.201Z,18.17
2022-11-19T15:45:45.034Z,19.07
2022-11-19T15:48:20.211Z,18.70
2022-11-19T15:50:49.591Z,18.20
2022-11-19T15:53:19.423Z,18.57
2022-11-19T15:55:53.213Z,16.53
2022-11-19T15:58:26.653Z,18.23
2022-11-19T16:00:56.435Z,19.87
2022-11-19T16:03:25.849Z,19.47
2022-11-19T16:06:03.672Z,22.27
2022-11-19T16:08:32.241Z,23.10
2022-11-19T16:11:20.488Z,19.87
2022-11-19T16:14:09.993Z,19.97
2022-11-19T16:16:56.407Z,18.73
2022-11-19T16:19:25.637Z,18.13
2022-11-19T16:21:57.322Z,23.37
2022-11-19T16:24:44.524Z,18.77
2022-11-19T16:27:14.224Z,19.87
2022-11-19T16:29:43.794Z,16.13
2022-11-19T16:32:16.919Z,20.17
2022-11-19T16:34:47.034Z,21.17
2022-11-19T16:37:16.832Z,19.53
2022-11-19T16:39:51.241Z,18.40
2022-11-19T16:42:23.005Z,19.13
2022-11-19T16:44:54.666Z,20.27
2022-11-19T16:47:25.314Z,18.17
2022-11-19T16:50:01.770Z,20.30
2022-11-19T16:52:40.866Z,20.80
2022-11-19T16:55:42.974Z,20.70
2022-11-19T16:58:20.494Z,18.40
2022-11-19T17:00:52.121Z,17.40
2022-11-19T17:03:34.324Z,15.83
2022-11-19T17:06:05.163Z,18.73
2022-11-19T17:08:36.466Z,18.17
2022-11-19T17:11:35.940Z,17.87
2022-11-19T17:14:21.281Z,16.57
2022-11-19T17:16:51.758Z,19.33
2022-11-19T17:19:33.233Z,16.67
2022-11-19T17:22:04.720Z,17.73
2022-11-19T17:24:35.418Z,15.90
2022-11-19T17:27:03.424Z,19.27
2022-11-19T17:29:31.276Z,17.47
2022-11-19T17:31:59.342Z,16.37
2022-11-19T17:34:31.674Z,18.53
2022-11-19T17:37:00.605Z,20.07
2022-11-19T17:39:47.809Z,17.90
2022-11-19T17:42:33.521Z,16.27
2022-11-19T17:45:06.033Z,16.53
2022-11-19T17:47:37.327Z,19.70
2022-11-19T17:50:05.928Z,18.67
2022-11-19T17:52:33.900Z,17.83
2022-11-19T17:55:15.147Z,18.70
2022-11-19T17:57:43.425Z,21.17
2022-11-19T18:00:13.516Z,19.63
2022-11-19T18:02:41.256Z,17.10
2022-11-19T18:05:16.298Z,22.97
2022-11-19T18:07:44.602Z,18.77
2022-11-19T18:10:13.866Z,21.20
2022-11-19T18:12:41.673Z,16.60
2022-11-19T18:15:16.576Z,16.67
2022-11-19T18:17:44.866Z,19.10
2022-11-19T18:20:13.308Z,17.17
2022-11-19T18:22:41.522Z,17.00
2022-11-19T18:25:15.961Z,17.23
2022-11-19T18:27:44.056Z,18.50
2022-11-19T18:30:13.535Z,21.00
2022-11-19T18:32:43.882Z,18.83
2022-11-19T18:35:16.854Z,18.43
2022-11-19T18:37:45.438Z,17.87
2022-11-19T18:40:16.218Z,18.77
2022-11-19T18:43:04.976Z,18.80
2022-11-19T18:45:32.253Z,18.60
2022-11-19T18:48:00.810Z,20.03
2022-11-19T18:50:30.308Z,20.00
2022-11-19T18:52:58.582Z,19.33
2022-11-19T18:55:29.474Z,19.47
2022-11-19T18:57:57.423Z,17.50
2022-11-19T19:00:25.522Z,18.83
2022-11-19T19:02:53.934Z,18.00
2022-11-19T19:05:22.052Z,18.80
2022-11-19T19:07:49.981Z,18.17
2022-11-19T19:10:18.056Z,18.07
2022-11-19T19:12:46.398Z,17.67
2022-11-19T19:15:15.300Z,17.93
2022-11-19T19:17:43.095Z,19.53
2022-11-19T19:20:12.325Z,16.60
2022-11-19T19:22:40.295Z,18.47
2022-11-19T19:25:09.111Z,19.43
2022-11-19T19:27:36.977Z,18.40
2022-11-19T19:30:07.406Z,19.13
2022-11-19T19:32:35.205Z,19.97
2022-11-19T19:35:03.012Z,18.53
2022-11-19T19:37:30.845Z,17.23
2022-11-19T19:39:58.735Z,18.27
2022-11-19T19:42:29.508Z,20.03
2022-11-19T19:44:58.588Z,16.87
2022-11-19T19:47:27.864Z,18.27
2022-11-19T19:49:55.731Z,20.47
2022-11-19T19:52:23.650Z,19.13
2022-11-19T19:54:51.582Z,18.87
2022-11-19T19:57:19.454Z,19.00
2022-11-19T19:59:47.748Z,19.23
2022-11-19T20:02:15.836Z,20.07
2022-11-19T20:04:45.031Z,18.33
2022-11-19T20:07:16.821Z,19.40
2022-11-19T20:09:44.768Z,17.80
2022-11-19T20:12:12.549Z,19.30
2022-11-19T20:14:40.318Z,19.37
2022-11-19T20:17:08.292Z,22.77
2022-11-19T20:19:36.129Z,20.27
2022-11-19T20:22:05.407Z,19.67
2022-11-19T20:24:33.254Z,22.07
2022-11-19T20:27:01.143Z,19.43
2022-11-19T20:29:28.910Z,21.03
2022-11-19T20:31:56.956Z,22.97
2022-11-19T20:34:24.988Z,21.13
2022-11-19T20:36:53.750Z,20.90
2022-11-19T20:39:23.315Z,21.27
2022-11-19T20:42:07.827Z,19.33
2022-11-19T20:44:35.550Z,18.67
2022-11-19T20:47:04.598Z,22.27
2022-11-19T20:49:34.265Z,20.83
2022-11-19T20:52:03.286Z,21.53
2022-11-19T20:54:33.148Z,22.10
2022-11-19T20:57:01.330Z,21.37
2022-11-19T20:59:29.643Z,18.83
2022-11-19T21:01:57.955Z,21.10
2022-11-19T21:04:27.232Z,20.50
2022-11-19T21:06:55.216Z,22.13
2022-11-19T21:09:23.317Z,20.10
2022-11-19T21:11:53.183Z,20.57
2022-11-19T21:14:20.970Z,20.00
2022-11-19T21:16:48.865Z,19.77
2022-11-19T21:19:16.809Z,20.53
2022-11-19T21:21:45.655Z,20.40
2022-11-19T21:24:14.092Z,18.60
2022-11-19T21:26:41.882Z,19.13
2022-11-19T21:29:11.306Z,19.03
2022-11-19T21:31:40.502Z,21.40
2022-11-19T21:34:10.087Z,22.00
2022-11-19T21:36:44.646Z,22.90
2022-11-19T21:39:14.083Z,29.57
2022-11-19T21:41:42.202Z,36.13
2022-11-19T21:44:13.330Z,53.53
2022-11-19T21:46:44.490Z,29.93
2022-11-19T21:49:12.328Z,26.03
2022-11-19T21:51:40.251Z,26.87
2022-11-19T21:54:08.191Z,26.20
2022-11-19T21:56:38.753Z,23.30
2022-11-19T21:59:07.658Z,22.10
2022-11-19T22:01:36.820Z,19.97
2022-11-19T22:04:07.544Z,19.83
2022-11-19T22:06:40.077Z,20.47
2022-11-19T22:09:07.961Z,21.03
2022-11-19T22:11:35.889Z,20.10
2022-11-19T22:14:11.027Z,19.37
2022-11-19T22:16:41.525Z,22.67
2022-11-19T22:19:11.613Z,19.70
2022-11-19T22:21:40.180Z,21.30
2022-11-19T22:24:08.087Z,19.83
2022-11-19T22:26:36.036Z,18.50
2022-11-19T22:29:03.846Z,21.60
2022-11-19T22:31:31.781Z,19.73
2022-11-19T22:34:01.453Z,21.33
2022-11-19T22:36:33.224Z,17.80
2022-11-19T22:39:01.342Z,21.13
2022-11-19T22:41:29.167Z,20.40
2022-11-19T22:43:57.043Z,18.23
2022-11-19T22:46:25.033Z,19.67
2022-11-19T22:48:53.721Z,23.27
2022-11-19T22:51:25.328Z,21.67
2022-11-19T22:53:54.770Z,20.37
2022-11-19T22:56:24.546Z,21.30
2022-11-19T22:58:52.639Z,21.27
2022-11-19T23:01:24.318Z,23.07
2022-11-19T23:03:52.544Z,21.00
2022-11-19T23:06:22.749Z,21.43
2022-11-19T23:08:51.094Z,23.27
2022-11-19T23:11:42.209Z,20.40
2022-11-19T23:14:11.275Z,20.33
2022-11-19T23:16:39.805Z,21.40
2022-11-19T23:19:08.069Z,19.90
2022-11-19T23:21:37.640Z,21.70
2022-11-19T23:24:06.037Z,20.70
2022-11-19T23:26:35.393Z,22.43
2022-11-19T23:29:03.696Z,19.73
2022-11-19T23:31:32.954Z,21.10
2022-11-19T23:34:00.851Z,22.43
2022-11-19T23:36:31.038Z,19.97
2022-11-19T23:39:00.693Z,21.93
2022-11-19T23:41:29.358Z,18.87
2022-11-19T23:43:57.501Z,21.03
2022-11-19T23:46:26.699Z,20.50
2022-11-19T23:48:55.946Z,22.83
2022-11-19T23:51:26.903Z,20.43
2022-11-19T23:53:55.465Z,21.40
2022-11-19T23:56:25.617Z,20.87
2022-11-19T23:58:54.798Z,20.70
